Time;durP1;ratioP1;P1;durP2;ratioP2;P2;SDS_P1;SDS_P2;PMS_P1;PMS_P2;Temp;Humidity;BMP_temperature;BMP_pressure;BME280_temperature;BME280_humidity;BME280_pressure;Samples;Min_cycle;Max_cycle;Signal;HPM_P1;HPM_P2
2023/01/14 00:00:05;;;;;;;46.15;7.65;;;;;;;;;;5019935;28;20922;-74
2023/01/14 00:02:32;;;;;;;46.72;6.78;;;;;;;;;;5021635;28;20036;-75
2023/01/14 00:04:57;;;;;;;39.92;7.35;;;;;;;;;;5019862;28;20037;-74
2023/01/14 00:07:25;;;;;;;49.70;6.97;;;;;;;;;;5021065;28;20331;-74
2023/01/14 00:09:51;;;;;;;59.80;7.78;;;;;;;;;;5021361;28;20041;-74
2023/01/14 00:12:18;;;;;;;39.75;6.47;;;;;;;;;;5003658;28;20061;-74
2023/01/14 00:14:44;;;;;;;43.22;6.45;;;;;;;;;;5020747;28;20541;-74
2023/01/14 00:17:09;;;;;;;40.53;6.53;;;;;;;;;;5021261;28;20033;-74
2023/01/14 00:19:34;;;;;;;45.67;6.72;;;;;;;;;;5018350;28;20041;-75
2023/01/14 00:21:59;;;;;;;50.13;7.40;;;;;;;;;;5020020;28;20033;-74
2023/01/14 00:24:25;;;;;;;47.03;7.28;;;;;;;;;;5019019;28;20037;-75
2023/01/14 00:26:52;;;;;;;53.25;6.65;;;;;;;;;;5002409;28;20179;-73
2023/01/14 00:29:20;;;;;;;46.80;7.30;;;;;;;;;;5021317;28;20041;-74
2023/01/14 00:31:45;;;;;;;57.33;7.55;;;;;;;;;;5021545;28;20044;-73
2023/01/14 00:34:11;;;;;;;53.55;7.68;;;;;;;;;;5021290;28;20326;-74
2023/01/14 00:36:36;;;;;;;64.40;7.35;;;;;;;;;;5021323;28;20051;-75
2023/01/14 00:39:02;;;;;;;35.20;6.28;;;;;;;;;;5019699;28;20040;-74
2023/01/14 00:41:28;;;;;;;50.40;6.90;;;;;;;;;;5021086;28;20033;-75
2023/01/14 00:43:55;;;;;;;50.85;6.68;;;;;;;;;;5020800;28;20036;-74
2023/01/14 00:46:21;;;;;;;55.63;6.95;;;;;;;;;;5035488;28;20052;-75
2023/01/14 00:48:47;;;;;;;39.72;6.47;;;;;;;;;;5040049;28;20063;-74
2023/01/14 00:51:12;;;;;;;50.80;6.90;;;;;;;;;;5040046;28;20052;-76
2023/01/14 00:53:39;;;;;;;52.83;9.13;;;;;;;;;;5041452;28;20032;-76
2023/01/14 00:56:04;;;;;;;52.08;7.43;;;;;;;;;;5039524;28;20086;-75
2023/01/14 00:58:30;;;;;;;52.67;7.57;;;;;;;;;;5040123;28;20021;-76
2023/01/14 01:00:56;;;;;;;50.38;6.97;;;;;;;;;;5040493;28;20041;-75
2023/01/14 01:03:24;;;;;;;46.03;6.93;;;;;;;;;;5040543;28;20107;-75
2023/01/14 01:05:49;;;;;;;43.42;6.95;;;;;;;;;;5041820;28;20025;-74
2023/01/14 01:08:16;;;;;;;49.20;6.95;;;;;;;;;;5041771;28;20579;-75
2023/01/14 01:10:45;;;;;;;56.17;7.40;;;;;;;;;;5039258;28;20113;-75
2023/01/14 01:13:12;;;;;;;48.17;6.80;;;;;;;;;;5040235;28;20075;-74
2023/01/14 01:15:38;;;;;;;53.83;8.13;;;;;;;;;;5040720;28;20029;-76
2023/01/14 01:18:04;;;;;;;53.80;7.05;;;;;;;;;;5053533;28;20041;-76
2023/01/14 01:20:30;;;;;;;45.85;6.78;;;;;;;;;;5037210;28;20049;-77
2023/01/14 01:22:55;;;;;;;48.10;6.88;;;;;;;;;;5038788;28;20091;-74
2023/01/14 01:25:20;;;;;;;50.85;6.07;;;;;;;;;;5039309;28;20041;-75
2023/01/14 01:27:46;;;;;;;52.42;7.10;;;;;;;;;;5038530;28;20044;-75
2023/01/14 01:30:12;;;;;;;48.67;6.75;;;;;;;;;;5036457;28;20037;-75
2023/01/14 01:32:37;;;;;;;46.55;6.70;;;;;;;;;;5038630;28;20124;-75
2023/01/14 01:35:03;;;;;;;39.08;5.22;;;;;;;;;;5033998;28;20086;-76
2023/01/14 01:37:28;;;;;;;45.13;6.75;;;;;;;;;;5035763;28;20056;-75
2023/01/14 01:39:54;;;;;;;50.33;7.30;;;;;;;;;;5037549;28;20122;-75
2023/01/14 01:42:22;;;;;;;53.97;7.88;;;;;;;;;;5037122;28;20029;-75
2023/01/14 01:44:47;;;;;;;44.65;6.20;;;;;;;;;;5039392;28;20029;-75
2023/01/14 01:47:13;;;;;;;46.97;6.50;;;;;;;;;;5036654;28;20106;-75
2023/01/14 01:49:38;;;;;;;53.70;7.22;;;;;;;;;;5036198;28;20029;-75
2023/01/14 01:52:13;;;;;;;76.85;9.10;;;;;;;;;;5038231;28;20983;-75
2023/01/14 01:54:48;;;;;;;58.95;8.48;;;;;;;;;;5039053;28;20040;-75
2023/01/14 01:57:15;;;;;;;56.65;7.88;;;;;;;;;;5039800;28;20033;-74
2023/01/14 01:59:43;;;;;;;63.33;7.78;;;;;;;;;;5024688;28;20044;-75
2023/01/14 02:02:09;;;;;;;62.72;8.25;;;;;;;;;;5022000;28;20044;-74
2023/01/14 02:04:34;;;;;;;59.03;7.82;;;;;;;;;;5021646;28;20120;-74
2023/01/14 02:06:59;;;;;;;60.80;8.18;;;;;;;;;;5023538;28;20029;-74
2023/01/14 02:09:25;;;;;;;71.53;8.68;;;;;;;;;;5023911;28;20572;-74
2023/01/14 02:12:01;;;;;;;61.45;8.65;;;;;;;;;;5023960;28;20060;-74
2023/01/14 02:14:29;;;;;;;70.32;10.05;;;;;;;;;;5023479;28;20033;-75
2023/01/14 02:16:57;;;;;;;76.70;10.25;;;;;;;;;;5022261;28;20028;-74
2023/01/14 02:19:41;;;;;;;76.15;10.05;;;;;;;;;;5045512;28;20794;-73
2023/01/14 02:22:10;;;;;;;65.55;9.80;;;;;;;;;;5001656;28;20877;-74
2023/01/14 02:24:38;;;;;;;97.55;11.38;;;;;;;;;;5003273;28;20128;-75
2023/01/14 02:27:09;;;;;;;82.10;10.00;;;;;;;;;;5002819;28;20033;-74
2023/01/14 02:29:50;;;;;;;60.33;10.93;;;;;;;;;;5003910;28;20045;-75
2023/01/14 02:32:31;;;;;;;86.68;9.73;;;;;;;;;;5023263;28;20040;-74
2023/01/14 02:35:00;;;;;;;62.42;10.05;;;;;;;;;;5021485;28;20033;-74
2023/01/14 02:37:32;;;;;;;82.40;10.57;;;;;;;;;;5023081;28;20499;-74
2023/01/14 02:39:57;;;;;;;67.13;9.77;;;;;;;;;;5023195;28;20041;-74
2023/01/14 02:45:14;;;;;;;49.97;6.25;;;;;;;;;;5023095;28;20056;-74
2023/01/14 02:47:41;;;;;;;41.20;5.55;;;;;;;;;;5040370;28;20071;-74
2023/01/14 02:50:06;;;;;;;41.60;5.57;;;;;;;;;;5043313;28;20036;-75
2023/01/14 02:52:32;;;;;;;43.85;5.32;;;;;;;;;;5042616;28;20032;-75
2023/01/14 02:55:00;;;;;;;44.72;5.72;;;;;;;;;;5024416;28;20311;-75
2023/01/14 02:57:41;;;;;;;48.40;7.22;;;;;;;;;;5022652;28;20028;-75
2023/01/14 03:00:09;;;;;;;41.65;5.65;;;;;;;;;;5041209;28;20044;-75
2023/01/14 03:02:43;;;;;;;31.50;5.70;;;;;;;;;;5042180;28;20126;-75
2023/01/14 03:05:11;;;;;;;35.42;4.82;;;;;;;;;;5022589;28;20322;-75
2023/01/14 03:07:39;;;;;;;39.30;5.18;;;;;;;;;;5019787;28;20753;-75
2023/01/14 03:10:12;;;;;;;40.80;5.78;;;;;;;;;;5022436;28;20040;-75
2023/01/14 03:12:44;;;;;;;45.53;5.30;;;;;;;;;;5040477;28;20024;-75
2023/01/14 03:15:20;;;;;;;47.88;5.03;;;;;;;;;;5042652;28;20461;-75
2023/01/14 03:17:49;;;;;;;47.22;5.97;;;;;;;;;;5042083;28;20116;-76
2023/01/14 03:20:17;;;;;;;45.13;5.93;;;;;;;;;;5039769;28;20330;-75
2023/01/14 03:22:43;;;;;;;34.58;4.88;;;;;;;;;;5023774;28;20044;-75
2023/01/14 03:25:13;;;;;;;39.90;7.28;;;;;;;;;;5004688;28;20571;-75
2023/01/14 03:27:39;;;;;;;39.38;6.25;;;;;;;;;;5002527;28;20144;-75
2023/01/14 03:30:07;;;;;;;45.08;6.07;;;;;;;;;;5001673;28;20558;-75
2023/01/14 03:32:36;;;;;;;62.40;9.82;;;;;;;;;;5020857;28;20441;-75
2023/01/14 03:35:05;;;;;;;70.88;11.68;;;;;;;;;;5022452;28;20195;-75
2023/01/14 03:37:31;;;;;;;62.25;10.23;;;;;;;;;;5020868;28;20123;-75
2023/01/14 03:39:58;;;;;;;42.60;7.65;;;;;;;;;;5004473;28;20052;-74
2023/01/14 03:42:25;;;;;;;45.97;6.85;;;;;;;;;;5022207;28;20452;-74
2023/01/14 03:44:54;;;;;;;41.60;6.05;;;;;;;;;;5022056;28;20037;-74
2023/01/14 03:47:21;;;;;;;29.95;5.13;;;;;;;;;;5020563;28;20044;-74
2023/01/14 03:49:49;;;;;;;31.63;4.18;;;;;;;;;;5021489;28;20044;-74
2023/01/14 03:52:18;;;;;;;35.10;4.53;;;;;;;;;;5022067;28;20267;-74
2023/01/14 03:54:59;;;;;;;28.45;4.90;;;;;;;;;;5020169;28;20031;-74
2023/01/14 03:57:28;;;;;;;38.22;5.43;;;;;;;;;;5019558;28;20473;-74
2023/01/14 03:59:57;;;;;;;42.47;8.70;;;;;;;;;;5021354;28;20368;-74
2023/01/14 04:02:23;;;;;;;56.53;11.93;;;;;;;;;;5020465;28;20780;-74
2023/01/14 04:04:54;;;;;;;43.13;7.63;;;;;;;;;;5020012;28;20044;-74
2023/01/14 04:07:19;;;;;;;34.72;6.85;;;;;;;;;;5021831;28;20035;-75
2023/01/14 04:09:45;;;;;;;38.88;8.02;;;;;;;;;;5021937;28;20290;-75
2023/01/14 04:12:10;;;;;;;35.80;6.60;;;;;;;;;;5021149;28;20163;-74
2023/01/14 04:17:22;;;;;;;32.05;6.68;;;;;;;;;;5001509;28;20121;-74
2023/01/14 04:19:47;;;;;;;35.75;6.05;;;;;;;;;;5001828;28;20029;-74
2023/01/14 04:22:13;;;;;;;27.95;5.85;;;;;;;;;;5001413;28;20030;-73
2023/01/14 04:24:38;;;;;;;34.20;5.30;;;;;;;;;;5002133;28;20579;-74
2023/01/14 04:27:05;;;;;;;29.45;6.07;;;;;;;;;;4999312;28;20874;-75
2023/01/14 04:29:31;;;;;;;34.28;9.45;;;;;;;;;;5002238;28;20045;-74
2023/01/14 04:31:56;;;;;;;41.15;8.45;;;;;;;;;;4999421;28;20078;-74
2023/01/14 04:34:22;;;;;;;40.45;8.05;;;;;;;;;;5005663;28;20359;-76
2023/01/14 04:36:47;;;;;;;33.63;7.90;;;;;;;;;;5010825;28;20029;-75
2023/01/14 04:39:15;;;;;;;37.88;7.38;;;;;;;;;;5011828;28;20752;-76
2023/01/14 04:44:24;;;;;;;34.15;7.25;;;;;;;;;;5027381;28;20025;-78
2023/01/14 04:46:49;;;;;;;42.92;7.97;;;;;;;;;;5031650;28;20021;-76
2023/01/14 04:49:15;;;;;;;38.88;8.80;;;;;;;;;;5030709;28;20525;-76
2023/01/14 04:51:40;;;;;;;48.15;10.30;;;;;;;;;;5031621;28;20257;-76
2023/01/14 04:54:05;;;;;;;51.08;12.50;;;;;;;;;;5012064;28;20406;-76
2023/01/14 04:56:30;;;;;;;41.38;10.20;;;;;;;;;;5032691;28;20234;-76
2023/01/14 04:59:01;;;;;;;41.30;8.60;;;;;;;;;;5031437;28;20033;-76
2023/01/14 05:01:28;;;;;;;39.20;8.07;;;;;;;;;;5031726;28;21755;-76
2023/01/14 05:03:58;;;;;;;35.38;6.95;;;;;;;;;;5031579;28;20161;-76
2023/01/14 05:06:24;;;;;;;38.88;6.40;;;;;;;;;;5033363;28;20025;-75
2023/01/14 05:08:49;;;;;;;42.28;8.27;;;;;;;;;;5034697;28;20029;-76
2023/01/14 05:11:15;;;;;;;40.63;8.43;;;;;;;;;;5036576;28;20278;-76
2023/01/14 05:13:40;;;;;;;32.72;8.10;;;;;;;;;;5035101;28;20494;-76
2023/01/14 05:16:05;;;;;;;34.67;8.20;;;;;;;;;;5032592;28;20021;-75
2023/01/14 05:18:33;;;;;;;43.58;7.90;;;;;;;;;;5035502;28;20030;-76
2023/01/14 05:21:01;;;;;;;45.17;9.00;;;;;;;;;;5034986;28;20496;-76
2023/01/14 05:23:26;;;;;;;56.85;11.60;;;;;;;;;;5036521;28;20112;-77
2023/01/14 05:25:51;;;;;;;52.15;13.90;;;;;;;;;;5037904;28;20034;-74
2023/01/14 05:28:17;;;;;;;70.93;15.43;;;;;;;;;;5037175;28;20025;-75
2023/01/14 05:30:43;;;;;;;55.28;12.88;;;;;;;;;;5040074;28;20559;-75
2023/01/14 05:33:10;;;;;;;51.97;12.05;;;;;;;;;;5037716;28;20025;-75
2023/01/14 05:35:36;;;;;;;54.15;12.65;;;;;;;;;;5037957;28;20025;-75
2023/01/14 05:38:02;;;;;;;58.47;14.30;;;;;;;;;;5038892;28;20048;-76
2023/01/14 05:40:29;;;;;;;55.38;12.45;;;;;;;;;;5038902;28;20465;-76
2023/01/14 05:45:48;;;;;;;57.17;13.10;;;;;;;;;;5041233;28;20560;-76
2023/01/14 05:48:14;;;;;;;57.20;14.35;;;;;;;;;;5030714;28;20033;-75
2023/01/14 05:50:39;;;;;;;56.70;14.20;;;;;;;;;;5039695;28;20082;-75
2023/01/14 05:53:05;;;;;;;66.80;16.13;;;;;;;;;;5038728;28;20255;-75
2023/01/14 05:55:31;;;;;;;58.00;14.52;;;;;;;;;;5035342;28;20051;-75
2023/01/14 05:57:57;;;;;;;55.15;15.43;;;;;;;;;;5032552;28;20029;-75
2023/01/14 06:08:38;;;;;;;54.67;15.10;;;;;;;;;;5022752;28;20214;-75
2023/01/14 06:11:04;;;;;;;50.88;14.13;;;;;;;;;;5022958;28;20021;-75
2023/01/14 06:13:29;;;;;;;53.17;13.77;;;;;;;;;;5006389;28;20167;-75
2023/01/14 06:15:55;;;;;;;43.65;13.63;;;;;;;;;;5022598;28;20029;-74
2023/01/14 06:18:23;;;;;;;51.92;13.77;;;;;;;;;;5024415;28;20173;-75
2023/01/14 06:20:53;;;;;;;54.55;12.30;;;;;;;;;;5025172;28;20080;-76
2023/01/14 06:23:22;;;;;;;53.20;16.00;;;;;;;;;;5006182;28;20041;-75
2023/01/14 06:25:50;;;;;;;53.75;19.30;;;;;;;;;;5007999;28;20025;-75
2023/01/14 06:28:16;;;;;;;49.60;16.83;;;;;;;;;;5005331;28;20450;-74
2023/01/14 06:30:42;;;;;;;59.97;17.23;;;;;;;;;;5009878;28;20265;-74
2023/01/14 06:33:10;;;;;;;64.90;17.08;;;;;;;;;;5004337;28;20514;-73
2023/01/14 06:35:40;;;;;;;53.72;16.58;;;;;;;;;;5002253;28;20229;-73
2023/01/14 06:38:06;;;;;;;49.08;16.35;;;;;;;;;;5003903;28;20259;-73
2023/01/14 06:40:31;;;;;;;54.83;14.15;;;;;;;;;;5003745;28;20585;-72
2023/01/14 06:42:59;;;;;;;41.45;9.38;;;;;;;;;;5005975;28;20064;-74
2023/01/14 06:45:24;;;;;;;36.15;6.82;;;;;;;;;;5008628;28;20268;-75
2023/01/14 06:47:50;;;;;;;43.67;8.45;;;;;;;;;;5020259;28;20448;-74
2023/01/14 06:50:18;;;;;;;34.15;7.25;;;;;;;;;;5028507;28;20124;-73
2023/01/14 06:52:45;;;;;;;39.08;8.27;;;;;;;;;;5024943;28;20040;-74
2023/01/14 06:55:11;;;;;;;41.78;8.05;;;;;;;;;;5028087;28;20505;-73
2023/01/14 06:57:36;;;;;;;41.35;8.55;;;;;;;;;;5031645;28;20123;-73
2023/01/14 07:00:02;;;;;;;39.63;8.02;;;;;;;;;;5026448;28;20118;-74
2023/01/14 07:02:29;;;;;;;38.03;7.15;;;;;;;;;;5029159;28;20064;-73
2023/01/14 07:04:58;;;;;;;42.75;8.60;;;;;;;;;;5029707;28;20108;-74
2023/01/14 07:07:23;;;;;;;39.83;8.25;;;;;;;;;;5025233;28;20033;-74
2023/01/14 07:09:48;;;;;;;37.97;7.53;;;;;;;;;;5030310;28;20090;-74
2023/01/14 07:12:14;;;;;;;42.00;9.45;;;;;;;;;;5030376;28;20029;-74
2023/01/14 07:14:39;;;;;;;44.17;9.40;;;;;;;;;;5032855;28;20135;-75
2023/01/14 07:17:04;;;;;;;36.85;7.57;;;;;;;;;;5030894;28;20033;-73
2023/01/14 07:19:30;;;;;;;33.85;8.27;;;;;;;;;;5031870;28;20260;-73
2023/01/14 07:21:55;;;;;;;34.88;7.20;;;;;;;;;;5016675;28;20031;-73
2023/01/14 07:24:21;;;;;;;37.58;8.07;;;;;;;;;;5018161;28;20301;-74
2023/01/14 07:26:46;;;;;;;40.72;9.20;;;;;;;;;;5028885;28;20037;-73
2023/01/14 07:29:11;;;;;;;46.40;10.55;;;;;;;;;;5029267;28;20154;-74
2023/01/14 07:31:37;;;;;;;43.50;9.35;;;;;;;;;;5027436;28;20040;-74
2023/01/14 07:34:02;;;;;;;48.75;11.20;;;;;;;;;;5027195;28;20366;-73
2023/01/14 07:36:27;;;;;;;40.60;9.35;;;;;;;;;;5061323;28;20036;-75
2023/01/14 07:38:53;;;;;;;46.00;9.73;;;;;;;;;;5028093;28;20603;-73
2023/01/14 07:41:20;;;;;;;40.08;11.10;;;;;;;;;;5026851;28;20139;-73
2023/01/14 07:43:48;;;;;;;34.55;10.80;;;;;;;;;;5029191;28;20037;-73
2023/01/14 07:46:14;;;;;;;44.17;13.02;;;;;;;;;;5035865;28;20037;-73
2023/01/14 07:48:40;;;;;;;42.58;13.65;;;;;;;;;;5036832;28;20116;-74
2023/01/14 07:51:08;;;;;;;44.70;12.15;;;;;;;;;;5032822;28;20095;-74
2023/01/14 07:53:33;;;;;;;34.50;11.13;;;;;;;;;;5030400;28;20025;-73
2023/01/14 07:56:02;;;;;;;40.70;10.38;;;;;;;;;;5032626;28;20434;-73
2023/01/14 07:58:27;;;;;;;32.40;9.95;;;;;;;;;;5034337;28;20032;-74
2023/01/14 08:00:53;;;;;;;30.65;10.30;;;;;;;;;;5029835;28;20037;-74
2023/01/14 08:03:19;;;;;;;36.58;11.82;;;;;;;;;;5029112;28;20029;-73
2023/01/14 08:05:44;;;;;;;29.00;11.02;;;;;;;;;;5034896;28;20025;-74
2023/01/14 08:08:09;;;;;;;43.65;19.75;;;;;;;;;;5038074;28;20047;-74
2023/01/14 08:10:35;;;;;;;38.25;15.38;;;;;;;;;;5037813;28;20103;-72
2023/01/14 08:13:00;;;;;;;35.78;14.60;;;;;;;;;;5032753;28;20028;-72
2023/01/14 08:15:26;;;;;;;34.10;13.45;;;;;;;;;;5030371;28;20028;-72
2023/01/14 08:18:01;;;;;;;42.40;22.35;;;;;;;;;;5023529;28;20041;-73
2023/01/14 08:20:27;;;;;;;41.03;22.88;;;;;;;;;;5016381;28;20037;-74
2023/01/14 08:22:57;;;;;;;46.85;25.17;;;;;;;;;;5016590;28;20036;-73
2023/01/14 08:25:22;;;;;;;37.35;17.55;;;;;;;;;;5012816;28;20292;-73
2023/01/14 08:27:48;;;;;;;36.03;18.13;;;;;;;;;;5015434;28;20029;-72
2023/01/14 08:30:13;;;;;;;29.05;14.52;;;;;;;;;;5014436;28;20124;-73
2023/01/14 08:32:38;;;;;;;51.97;20.52;;;;;;;;;;5017839;28;20029;-72
2023/01/14 08:35:05;;;;;;;29.48;17.10;;;;;;;;;;5000073;28;20045;-72
2023/01/14 08:37:30;;;;;;;37.63;20.67;;;;;;;;;;5016409;28;20032;-72
2023/01/14 08:39:56;;;;;;;35.13;21.33;;;;;;;;;;5017114;28;20241;-72
2023/01/14 08:42:21;;;;;;;52.53;29.20;;;;;;;;;;5015710;28;20042;-73
2023/01/14 08:44:47;;;;;;;48.38;28.67;;;;;;;;;;5016994;28;20026;-72
2023/01/14 08:47:12;;;;;;;43.72;25.95;;;;;;;;;;5012838;28;20223;-73
2023/01/14 08:49:37;;;;;;;43.72;24.73;;;;;;;;;;5012790;28;20346;-73
2023/01/14 08:52:03;;;;;;;44.67;26.25;;;;;;;;;;5010452;28;20049;-73
2023/01/14 08:54:28;;;;;;;47.70;31.30;;;;;;;;;;5041263;28;20041;-73
2023/01/14 08:56:55;;;;;;;39.10;25.13;;;;;;;;;;5012718;28;20604;-72
2023/01/14 08:59:21;;;;;;;42.35;28.77;;;;;;;;;;5014947;28;20559;-74
2023/01/14 09:01:46;;;;;;;37.78;26.45;;;;;;;;;;5009490;28;20036;-72
2023/01/14 09:04:11;;;;;;;56.10;34.15;;;;;;;;;;5015747;28;20714;-74
2023/01/14 09:17:35;;;;;;;42.88;30.25;;;;;;;;;;5039191;28;20028;-72
2023/01/14 09:20:01;;;;;;;43.38;26.10;;;;;;;;;;5038467;28;20407;-73
2023/01/14 09:22:28;;;;;;;32.13;21.70;;;;;;;;;;5036955;28;20219;-71
2023/01/14 09:24:54;;;;;;;48.47;30.25;;;;;;;;;;5025819;28;20387;-71
2023/01/14 09:27:22;;;;;;;37.85;22.48;;;;;;;;;;5025589;28;20032;-72
2023/01/14 09:29:51;;;;;;;29.45;18.60;;;;;;;;;;5024593;28;20036;-71
2023/01/14 09:32:19;;;;;;;30.58;17.30;;;;;;;;;;5025345;28;20085;-71
2023/01/14 09:34:48;;;;;;;37.65;22.52;;;;;;;;;;5024802;28;20240;-71
2023/01/14 09:37:19;;;;;;;32.63;18.35;;;;;;;;;;5005272;28;20063;-70
2023/01/14 09:39:44;;;;;;;47.25;29.95;;;;;;;;;;5005078;28;20041;-70
2023/01/14 09:42:14;;;;;;;34.75;23.73;;;;;;;;;;5003098;28;20040;-73
2023/01/14 09:44:41;;;;;;;24.40;14.90;;;;;;;;;;5005213;28;20029;-72
2023/01/14 09:47:11;;;;;;;16.02;7.95;;;;;;;;;;5003006;28;20500;-72
2023/01/14 09:49:36;;;;;;;34.63;21.83;;;;;;;;;;5003018;28;20040;-72
2023/01/14 09:52:11;;;;;;;35.70;17.40;;;;;;;;;;5004871;28;20029;-73
2023/01/14 09:54:55;;;;;;;35.65;19.70;;;;;;;;;;5021457;28;20063;-73
2023/01/14 09:57:24;;;;;;;24.90;14.65;;;;;;;;;;5022846;28;20504;-71
2023/01/14 10:00:07;;;;;;;19.15;11.00;;;;;;;;;;5021956;28;20128;-71
2023/01/14 10:02:43;;;;;;;27.20;15.75;;;;;;;;;;5024369;28;20448;-72
2023/01/14 10:05:19;;;;;;;33.05;23.55;;;;;;;;;;5024312;28;20037;-71
2023/01/14 10:07:45;;;;;;;35.55;21.63;;;;;;;;;;5024552;28;20029;-71
2023/01/14 10:10:20;;;;;;;42.63;24.80;;;;;;;;;;5024548;28;20345;-72
2023/01/14 10:12:47;;;;;;;37.92;25.17;;;;;;;;;;5024465;28;20436;-69
2023/01/14 10:15:18;;;;;;;36.50;22.38;;;;;;;;;;5023994;28;20025;-72
2023/01/14 10:17:48;;;;;;;31.13;20.65;;;;;;;;;;5024047;28;20192;-73
2023/01/14 10:20:19;;;;;;;19.90;11.45;;;;;;;;;;5022141;28;20343;-73
2023/01/14 10:22:52;;;;;;;23.85;15.90;;;;;;;;;;5024378;28;20103;-72
2023/01/14 10:25:19;;;;;;;31.08;18.25;;;;;;;;;;5025058;28;20048;-73
2023/01/14 10:27:48;;;;;;;24.08;11.07;;;;;;;;;;5062120;28;20240;-72
2023/01/14 10:30:27;;;;;;;25.65;15.02;;;;;;;;;;5029011;28;20707;-72
2023/01/14 10:32:53;;;;;;;30.13;14.57;;;;;;;;;;5032941;28;20103;-73
2023/01/14 10:35:26;;;;;;;21.40;12.85;;;;;;;;;;5045352;28;20132;-73
2023/01/14 10:37:52;;;;;;;28.08;15.05;;;;;;;;;;5033044;28;20029;-72
2023/01/14 10:40:22;;;;;;;19.48;9.32;;;;;;;;;;5028343;28;20230;-72
2023/01/14 10:42:48;;;;;;;21.15;8.70;;;;;;;;;;5027668;28;20608;-72
2023/01/14 10:45:13;;;;;;;14.55;6.15;;;;;;;;;;5027742;28;20039;-72
2023/01/14 10:47:40;;;;;;;12.95;7.07;;;;;;;;;;5045409;28;20432;-72
2023/01/14 10:50:27;;;;;;;17.40;7.30;;;;;;;;;;5045502;28;20122;-72
2023/01/14 10:52:53;;;;;;;13.88;7.80;;;;;;;;;;5047487;28;20024;-72
2023/01/14 10:55:28;;;;;;;10.45;6.15;;;;;;;;;;5045543;28;20568;-73
2023/01/14 10:57:59;;;;;;;13.70;7.40;;;;;;;;;;5045847;28;20125;-72
2023/01/14 11:00:35;;;;;;;26.60;9.10;;;;;;;;;;5046997;28;20044;-72
2023/01/14 11:03:01;;;;;;;11.60;6.20;;;;;;;;;;5046624;28;20032;-73
2023/01/14 11:05:32;;;;;;;8.23;4.63;;;;;;;;;;5046540;28;20105;-72
2023/01/14 11:08:00;;;;;;;7.03;3.60;;;;;;;;;;5048065;28;20362;-72
2023/01/14 11:10:27;;;;;;;9.57;3.42;;;;;;;;;;5048464;28;20085;-72
2023/01/14 11:12:52;;;;;;;9.32;3.38;;;;;;;;;;5045024;28;20029;-71
2023/01/14 11:15:37;;;;;;;7.35;3.63;;;;;;;;;;5041403;28;20580;-71
2023/01/14 11:18:15;;;;;;;9.88;3.95;;;;;;;;;;5019368;28;20044;-72
2023/01/14 11:20:40;;;;;;;10.35;4.80;;;;;;;;;;5054403;28;20062;-72
2023/01/14 11:23:13;;;;;;;9.52;3.47;;;;;;;;;;5024116;28;20603;-71
2023/01/14 11:25:41;;;;;;;18.60;4.20;;;;;;;;;;5027678;28;20029;-72
2023/01/14 11:28:07;;;;;;;13.25;4.13;;;;;;;;;;5025834;28;20258;-73
2023/01/14 11:30:33;;;;;;;23.35;4.88;;;;;;;;;;5023196;28;20124;-71
2023/01/14 11:32:59;;;;;;;26.23;5.30;;;;;;;;;;5022693;28;20044;-73
2023/01/14 11:35:28;;;;;;;24.20;6.15;;;;;;;;;;5023486;28;20289;-72
2023/01/14 11:37:54;;;;;;;26.13;6.13;;;;;;;;;;5025426;28;20326;-71
2023/01/14 11:43:19;;;;;;;28.05;5.72;;;;;;;;;;5024840;28;20025;-72
2023/01/14 11:45:44;;;;;;;33.10;5.93;;;;;;;;;;5023030;28;20044;-71
2023/01/14 11:48:21;;;;;;;18.58;3.92;;;;;;;;;;5026123;28;20086;-72
2023/01/14 11:50:55;;;;;;;24.73;5.10;;;;;;;;;;5024269;28;20049;-71
2023/01/14 11:53:26;;;;;;;19.90;5.10;;;;;;;;;;5025143;28;20353;-70
2023/01/14 11:55:54;;;;;;;17.52;3.78;;;;;;;;;;5023251;28;20036;-70
2023/01/14 11:58:22;;;;;;;18.27;5.10;;;;;;;;;;5021656;28;20402;-71
2023/01/14 12:00:53;;;;;;;19.50;3.95;;;;;;;;;;5022812;28;20610;-70
2023/01/14 12:03:32;;;;;;;15.48;3.70;;;;;;;;;;5022226;28;20512;-70
2023/01/14 12:05:57;;;;;;;20.60;4.47;;;;;;;;;;5023549;28;20047;-70
2023/01/14 12:08:26;;;;;;;19.52;4.10;;;;;;;;;;5023007;28;20033;-70
2023/01/14 12:10:59;;;;;;;20.92;3.65;;;;;;;;;;5021641;28;20684;-71
2023/01/14 12:19:16;;;;;;;22.73;3.75;;;;;;;;;;5023100;28;20218;-71
2023/01/14 12:21:44;;;;;;;18.73;3.78;;;;;;;;;;5022173;28;20192;-71
2023/01/14 12:24:28;;;;;;;18.98;3.70;;;;;;;;;;5021910;28;20055;-71
2023/01/14 12:26:55;;;;;;;19.73;3.95;;;;;;;;;;5020476;28;20494;-72
2023/01/14 12:29:23;;;;;;;18.27;3.58;;;;;;;;;;5020089;28;20234;-72
2023/01/14 12:31:59;;;;;;;22.73;3.67;;;;;;;;;;5022189;28;20489;-71
2023/01/14 12:34:29;;;;;;;18.85;3.70;;;;;;;;;;5022216;28;20075;-71
2023/01/14 12:37:09;;;;;;;21.02;3.65;;;;;;;;;;5022334;28;20189;-71
2023/01/14 12:45:47;;;;;;;34.20;3.97;;;;;;;;;;5022333;28;20040;-71
2023/01/14 12:48:13;;;;;;;22.55;3.80;;;;;;;;;;5002318;28;20349;-71
2023/01/14 12:50:59;;;;;;;19.63;3.45;;;;;;;;;;5002033;28;20111;-71
2023/01/14 12:53:24;;;;;;;17.73;3.20;;;;;;;;;;5001781;28;20900;-71
2023/01/14 12:55:51;;;;;;;14.75;3.05;;;;;;;;;;5002433;28;20022;-71
2023/01/14 12:58:19;;;;;;;24.13;3.47;;;;;;;;;;5033294;28;20466;-71
2023/01/14 13:00:49;;;;;;;18.25;3.70;;;;;;;;;;5001983;28;20666;-71
2023/01/14 13:03:19;;;;;;;21.42;3.20;;;;;;;;;;5001790;28;20188;-72
2023/01/14 13:05:45;;;;;;;17.20;3.35;;;;;;;;;;5000327;28;20100;-70
2023/01/14 13:08:32;;;;;;;18.60;3.53;;;;;;;;;;4980625;28;20433;-70
2023/01/14 13:11:23;;;;;;;20.35;3.90;;;;;;;;;;5008508;28;20044;-69
2023/01/14 13:13:59;;;;;;;28.73;4.72;;;;;;;;;;5017233;28;20142;-69
2023/01/14 13:16:33;;;;;;;25.40;4.00;;;;;;;;;;5003225;28;20045;-70
2023/01/14 13:18:59;;;;;;;30.00;4.75;;;;;;;;;;5021097;28;20025;-69
2023/01/14 13:21:43;;;;;;;23.23;4.15;;;;;;;;;;5021567;28;20045;-69
2023/01/14 13:24:26;;;;;;;31.95;5.05;;;;;;;;;;5020328;28;20351;-69
2023/01/14 13:26:53;;;;;;;20.63;4.68;;;;;;;;;;5021616;28;20036;-71
2023/01/14 13:29:21;;;;;;;22.02;3.90;;;;;;;;;;5019470;28;20091;-71
2023/01/14 13:31:47;;;;;;;30.33;4.63;;;;;;;;;;5021832;28;20029;-71
2023/01/14 13:34:21;;;;;;;30.23;4.85;;;;;;;;;;5021782;28;20044;-71
2023/01/14 13:37:08;;;;;;;25.77;4.45;;;;;;;;;;5022692;28;20601;-71
2023/01/14 13:39:33;;;;;;;30.17;4.03;;;;;;;;;;5005897;28;20175;-71
2023/01/14 13:42:01;;;;;;;26.92;4.72;;;;;;;;;;5022085;28;20028;-71
2023/01/14 13:44:29;;;;;;;37.38;5.68;;;;;;;;;;5021004;28;20270;-73
2023/01/14 13:47:02;;;;;;;25.08;4.38;;;;;;;;;;5018919;28;20040;-71
2023/01/14 13:49:40;;;;;;;28.55;4.47;;;;;;;;;;4985579;28;20576;-71
2023/01/14 13:52:12;;;;;;;26.33;4.45;;;;;;;;;;5022285;28;20032;-72
2023/01/14 13:54:42;;;;;;;33.90;5.10;;;;;;;;;;5014885;28;20281;-72
2023/01/14 13:57:23;;;;;;;27.88;5.53;;;;;;;;;;5004925;28;20029;-72
2023/01/14 13:59:52;;;;;;;24.52;4.30;;;;;;;;;;5004938;28;20156;-71
2023/01/14 14:02:36;;;;;;;42.00;5.65;;;;;;;;;;5004951;28;20496;-72
2023/01/14 14:05:02;;;;;;;31.52;4.95;;;;;;;;;;5018909;28;20029;-70
2023/01/14 14:07:42;;;;;;;28.80;4.32;;;;;;;;;;5003005;28;20512;-71
2023/01/14 14:10:12;;;;;;;36.10;5.43;;;;;;;;;;4998579;28;20088;-71
2023/01/14 14:15:28;;;;;;;25.65;4.47;;;;;;;;;;5023721;28;20025;-71
2023/01/14 14:17:57;;;;;;;35.63;5.63;;;;;;;;;;5023829;28;20025;-71
2023/01/14 14:20:25;;;;;;;31.38;5.25;;;;;;;;;;5023867;28;20159;-73
2023/01/14 14:22:57;;;;;;;32.40;5.28;;;;;;;;;;5023732;28;20219;-73
2023/01/14 14:25:33;;;;;;;42.03;6.85;;;;;;;;;;5003774;28;20652;-71
2023/01/14 14:27:59;;;;;;;29.13;5.30;;;;;;;;;;5022245;28;20024;-70
2023/01/14 14:30:54;;;;;;;33.67;5.22;;;;;;;;;;5024233;28;20040;-72
2023/01/14 14:33:33;;;;;;;41.10;5.63;;;;;;;;;;5009254;28;20464;-73
2023/01/14 14:35:59;;;;;;;48.30;6.90;;;;;;;;;;5023762;28;20082;-71
2023/01/14 14:38:25;;;;;;;32.58;5.18;;;;;;;;;;5021690;28;20056;-71
2023/01/14 14:40:51;;;;;;;39.70;6.20;;;;;;;;;;5023903;28;20098;-72
2023/01/14 14:43:27;;;;;;;39.38;5.90;;;;;;;;;;5038242;28;20095;-71
2023/01/14 14:46:03;;;;;;;52.63;8.13;;;;;;;;;;5023999;28;20069;-71
2023/01/14 14:48:34;;;;;;;43.83;7.00;;;;;;;;;;5043163;28;20063;-70
2023/01/14 14:51:12;;;;;;;43.90;6.78;;;;;;;;;;5041396;28;20042;-72
2023/01/14 14:53:44;;;;;;;48.03;6.68;;;;;;;;;;5039770;28;20438;-70
2023/01/14 14:56:12;;;;;;;48.60;6.70;;;;;;;;;;5043260;28;20313;-72
2023/01/14 14:58:37;;;;;;;48.45;6.60;;;;;;;;;;5041895;28;20029;-72
2023/01/14 15:01:04;;;;;;;51.28;6.95;;;;;;;;;;5043597;28;20442;-71
2023/01/14 15:03:31;;;;;;;44.97;6.93;;;;;;;;;;5042336;28;20032;-72
2023/01/14 15:05:58;;;;;;;33.72;5.60;;;;;;;;;;5023430;28;20069;-70
2023/01/14 15:08:28;;;;;;;42.97;5.75;;;;;;;;;;5012648;28;20273;-73
2023/01/14 15:10:55;;;;;;;41.72;6.30;;;;;;;;;;5005407;28;20534;-72
2023/01/14 15:13:28;;;;;;;37.92;5.32;;;;;;;;;;5024681;28;20048;-72
2023/01/14 15:16:07;;;;;;;50.75;6.53;;;;;;;;;;5024049;28;20424;-71
2023/01/14 15:18:32;;;;;;;36.50;5.95;;;;;;;;;;5019357;28;20229;-71
2023/01/14 15:21:01;;;;;;;46.22;7.10;;;;;;;;;;5025454;28;20059;-73